Time;durP1;ratioP1;P1;durP2;ratioP2;P2;SDS_P1;SDS_P2;PMS_P1;PMS_P2;Temp;Humidity;BMP_temperature;BMP_pressure;BME280_temperature;BME280_humidity;BME280_pressure;Samples;Min_cycle;Max_cycle;Signal;HPM_P1;HPM_P2
2023/10/23 00:02:08;;;;;;;9.53;6.43;;;;;;;;;;5005878;28;20469;-57
2023/10/23 00:04:34;;;;;;;9.48;6.75;;;;;;;;;;5006341;28;20954;-57
2023/10/23 00:06:59;;;;;;;8.53;6.50;;;;;;;;;;5002114;28;20437;-58
2023/10/23 00:09:24;;;;;;;9.63;6.73;;;;;;;;;;4996978;28;20877;-57
2023/10/23 00:11:49;;;;;;;10.03;6.00;;;;;;;;;;4997693;28;20452;-57
2023/10/23 00:14:15;;;;;;;10.67;6.63;;;;;;;;;;5004731;28;20508;-57
2023/10/23 00:16:40;;;;;;;8.48;6.53;;;;;;;;;;5004918;28;20407;-57
2023/10/23 00:19:05;;;;;;;10.07;6.20;;;;;;;;;;5003648;28;20412;-57
2023/10/23 00:21:30;;;;;;;11.67;7.10;;;;;;;;;;5006411;28;20914;-57
2023/10/23 00:23:56;;;;;;;9.73;7.00;;;;;;;;;;5005285;28;20405;-57
2023/10/23 00:26:21;;;;;;;9.63;7.20;;;;;;;;;;5003958;28;20416;-57
2023/10/23 00:28:47;;;;;;;8.97;6.63;;;;;;;;;;5003852;28;20417;-57
2023/10/23 00:31:12;;;;;;;8.63;7.07;;;;;;;;;;4997619;28;20830;-57
2023/10/23 00:33:38;;;;;;;9.23;6.60;;;;;;;;;;4997029;28;20408;-57
2023/10/23 00:36:03;;;;;;;8.77;6.90;;;;;;;;;;5000476;28;20517;-57
2023/10/23 00:38:28;;;;;;;8.38;6.47;;;;;;;;;;5006053;28;20424;-57
2023/10/23 00:40:54;;;;;;;9.63;7.20;;;;;;;;;;5005387;28;20950;-57
2023/10/23 00:43:20;;;;;;;8.50;7.07;;;;;;;;;;5005299;28;20427;-57
2023/10/23 00:45:59;;;;;;;8.38;6.72;;;;;;;;;;5006200;28;20409;-57
2023/10/23 00:48:24;;;;;;;9.00;7.27;;;;;;;;;;5004604;28;20488;-57
2023/10/23 00:50:50;;;;;;;10.60;7.20;;;;;;;;;;5003041;28;20491;-57
2023/10/23 00:53:16;;;;;;;10.50;7.22;;;;;;;;;;4999306;28;20422;-57
2023/10/23 00:55:41;;;;;;;10.35;7.40;;;;;;;;;;4997017;28;20397;-57
2023/10/23 00:58:07;;;;;;;9.40;7.03;;;;;;;;;;4996923;28;20653;-57
2023/10/23 01:00:33;;;;;;;9.77;6.80;;;;;;;;;;5012744;28;21013;-57
2023/10/23 01:02:58;;;;;;;7.68;6.30;;;;;;;;;;5010664;28;20961;-57
2023/10/23 01:05:23;;;;;;;9.50;7.30;;;;;;;;;;5003495;28;20407;-57
2023/10/23 01:07:49;;;;;;;9.50;7.27;;;;;;;;;;5006292;28;20596;-57
2023/10/23 01:10:14;;;;;;;8.63;6.90;;;;;;;;;;5004715;28;20467;-57
2023/10/23 01:12:40;;;;;;;9.43;6.57;;;;;;;;;;5004042;28;20844;-57
2023/10/23 01:15:06;;;;;;;10.25;7.60;;;;;;;;;;4999094;28;20761;-57
2023/10/23 01:17:31;;;;;;;9.10;7.30;;;;;;;;;;4997937;28;20909;-57
2023/10/23 01:19:57;;;;;;;9.30;7.27;;;;;;;;;;4995874;28;20410;-57
2023/10/23 01:22:22;;;;;;;10.50;8.30;;;;;;;;;;4998685;28;20400;-57
2023/10/23 01:24:48;;;;;;;9.93;7.57;;;;;;;;;;4999988;28;20748;-57
2023/10/23 01:27:13;;;;;;;9.52;7.68;;;;;;;;;;5017680;28;20514;-57
2023/10/23 01:29:38;;;;;;;9.93;7.23;;;;;;;;;;5016679;28;20823;-57
2023/10/23 01:32:04;;;;;;;9.27;7.57;;;;;;;;;;5003342;28;20415;-57
2023/10/23 01:34:29;;;;;;;8.52;7.20;;;;;;;;;;5004490;28;20415;-57
2023/10/23 01:36:54;;;;;;;8.10;7.00;;;;;;;;;;5019019;28;20398;-57
2023/10/23 01:39:20;;;;;;;9.67;8.07;;;;;;;;;;5015119;28;20403;-57
2023/10/23 01:41:45;;;;;;;10.57;7.87;;;;;;;;;;5015834;28;20789;-57
2023/10/23 01:44:11;;;;;;;10.40;8.53;;;;;;;;;;5022974;28;20407;-57
2023/10/23 01:46:37;;;;;;;11.37;8.17;;;;;;;;;;5017692;28;20471;-57
2023/10/23 01:49:02;;;;;;;11.15;8.40;;;;;;;;;;5018908;28;20493;-57
2023/10/23 01:51:28;;;;;;;9.80;7.73;;;;;;;;;;5033378;28;20425;-57
2023/10/23 01:53:53;;;;;;;9.27;7.47;;;;;;;;;;5029132;28;20407;-57
2023/10/23 01:56:18;;;;;;;8.70;6.90;;;;;;;;;;5020898;28;20415;-57
2023/10/23 01:58:44;;;;;;;9.90;7.73;;;;;;;;;;5028962;28;20472;-57
2023/10/23 02:01:20;;;;;;;9.63;7.33;;;;;;;;;;5038848;28;20432;-57
2023/10/23 02:03:45;;;;;;;10.47;7.50;;;;;;;;;;5050398;28;20409;-57
2023/10/23 02:06:11;;;;;;;10.27;7.10;;;;;;;;;;5048642;28;20899;-57
2023/10/23 02:08:36;;;;;;;9.98;7.20;;;;;;;;;;5047905;28;20520;-57
2023/10/23 02:11:01;;;;;;;11.77;8.40;;;;;;;;;;5049021;28;20415;-57
2023/10/23 02:13:28;;;;;;;16.47;10.13;;;;;;;;;;5049653;28;20405;-57
2023/10/23 02:15:53;;;;;;;14.97;10.63;;;;;;;;;;5047493;28;20463;-57
2023/10/23 02:18:19;;;;;;;15.93;9.88;;;;;;;;;;5049318;28;20405;-57
2023/10/23 02:20:44;;;;;;;14.47;10.03;;;;;;;;;;5049916;28;20902;-57
2023/10/23 02:23:09;;;;;;;13.40;9.60;;;;;;;;;;5046350;28;20745;-58
2023/10/23 02:25:34;;;;;;;15.83;10.53;;;;;;;;;;5050397;28;20409;-57
2023/10/23 02:28:00;;;;;;;12.40;9.67;;;;;;;;;;5049776;28;20472;-57
2023/10/23 02:30:25;;;;;;;15.33;10.00;;;;;;;;;;5046451;28;21160;-57
2023/10/23 02:32:50;;;;;;;15.27;10.60;;;;;;;;;;5049858;28;20420;-57
2023/10/23 02:35:16;;;;;;;17.35;11.35;;;;;;;;;;5048612;28;20459;-57
2023/10/23 02:37:41;;;;;;;14.97;10.27;;;;;;;;;;5047569;28;21008;-57
2023/10/23 02:40:07;;;;;;;13.00;10.33;;;;;;;;;;5048976;28;20409;-57
2023/10/23 02:42:32;;;;;;;12.90;9.83;;;;;;;;;;5048458;28;20408;-57
2023/10/23 02:44:57;;;;;;;11.97;9.97;;;;;;;;;;5047984;28;20746;-57
2023/10/23 02:47:22;;;;;;;13.60;10.23;;;;;;;;;;5048274;28;20402;-57
2023/10/23 02:49:48;;;;;;;13.00;10.13;;;;;;;;;;5048648;28;20425;-57
2023/10/23 02:52:15;;;;;;;13.30;10.60;;;;;;;;;;5047318;28;20405;-57
2023/10/23 02:54:40;;;;;;;12.85;10.05;;;;;;;;;;5048097;28;20447;-57
2023/10/23 02:57:07;;;;;;;13.67;10.73;;;;;;;;;;5047756;28;20413;-57
2023/10/23 02:59:32;;;;;;;10.90;8.82;;;;;;;;;;5048374;28;20414;-57
2023/10/23 03:01:57;;;;;;;11.37;8.80;;;;;;;;;;5058051;28;20403;-57
2023/10/23 03:04:23;;;;;;;10.47;8.53;;;;;;;;;;5064424;28;21072;-57
2023/10/23 03:06:48;;;;;;;11.23;8.50;;;;;;;;;;5064764;28;20415;-57
2023/10/23 03:09:14;;;;;;;10.83;8.37;;;;;;;;;;5060227;28;20475;-57
2023/10/23 03:11:39;;;;;;;10.82;8.43;;;;;;;;;;5064766;28;20395;-57
2023/10/23 03:14:04;;;;;;;10.00;7.53;;;;;;;;;;5065074;28;20415;-57
2023/10/23 03:16:30;;;;;;;10.60;8.00;;;;;;;;;;5060202;28;20890;-57
2023/10/23 03:18:55;;;;;;;8.33;7.33;;;;;;;;;;5059517;28;20396;-57
2023/10/23 03:21:20;;;;;;;9.23;7.60;;;;;;;;;;5064630;28;20380;-57
2023/10/23 03:23:46;;;;;;;9.37;8.20;;;;;;;;;;5060193;28;20408;-57
2023/10/23 03:26:11;;;;;;;10.93;8.40;;;;;;;;;;5063737;28;21027;-57
2023/10/23 03:28:36;;;;;;;9.70;7.63;;;;;;;;;;5064900;28;20432;-57
2023/10/23 03:31:03;;;;;;;9.87;8.00;;;;;;;;;;5060741;28;20417;-58
2023/10/23 03:33:28;;;;;;;10.35;8.30;;;;;;;;;;5062468;28;20412;-57
2023/10/23 03:35:53;;;;;;;10.67;8.53;;;;;;;;;;5031543;28;20406;-58
2023/10/23 03:38:19;;;;;;;11.50;8.40;;;;;;;;;;5033443;28;20434;-57
2023/10/23 03:40:54;;;;;;;12.70;8.57;;;;;;;;;;5030485;28;20408;-57
2023/10/23 03:43:19;;;;;;;12.30;9.02;;;;;;;;;;5028869;28;20409;-58
2023/10/23 03:45:44;;;;;;;13.37;9.77;;;;;;;;;;5029520;28;20414;-58
2023/10/23 03:48:10;;;;;;;14.50;9.47;;;;;;;;;;5031498;28;20423;-58
2023/10/23 03:50:36;;;;;;;13.57;9.23;;;;;;;;;;5022029;28;20744;-58
2023/10/23 03:53:01;;;;;;;11.45;9.25;;;;;;;;;;5018404;28;20406;-57
2023/10/23 03:55:26;;;;;;;13.83;9.23;;;;;;;;;;5024217;28;20610;-57
2023/10/23 03:57:52;;;;;;;12.13;9.30;;;;;;;;;;5026071;28;21005;-58
2023/10/23 04:00:17;;;;;;;16.43;8.83;;;;;;;;;;5024269;28;20555;-57
2023/10/23 04:02:42;;;;;;;26.90;11.93;;;;;;;;;;5008479;28;20490;-57
2023/10/23 04:05:08;;;;;;;19.20;11.83;;;;;;;;;;5004898;28;20793;-57
2023/10/23 04:07:33;;;;;;;23.63;12.57;;;;;;;;;;4989301;28;20411;-58
2023/10/23 04:09:58;;;;;;;69.47;13.23;;;;;;;;;;5006613;28;20464;-57
2023/10/23 04:12:23;;;;;;;58.17;13.73;;;;;;;;;;5002324;28;20401;-58
2023/10/23 04:14:49;;;;;;;33.30;13.00;;;;;;;;;;4997104;28;20455;-57
2023/10/23 04:17:14;;;;;;;17.50;12.03;;;;;;;;;;4999429;28;20399;-58
2023/10/23 04:19:39;;;;;;;16.52;11.68;;;;;;;;;;5001593;28;20409;-57
2023/10/23 04:22:05;;;;;;;21.00;12.33;;;;;;;;;;5003942;28;20420;-58
2023/10/23 04:24:30;;;;;;;29.03;10.23;;;;;;;;;;5006744;28;20416;-58
2023/10/23 04:26:55;;;;;;;27.40;12.63;;;;;;;;;;5006211;28;20465;-58
2023/10/23 04:29:20;;;;;;;45.20;14.80;;;;;;;;;;5004463;28;20407;-57
2023/10/23 04:31:46;;;;;;;28.80;13.43;;;;;;;;;;5006286;28;20519;-57
2023/10/23 04:34:11;;;;;;;45.17;13.43;;;;;;;;;;5005761;28;20475;-58
2023/10/23 04:36:36;;;;;;;43.03;13.43;;;;;;;;;;4996930;28;20451;-58
2023/10/23 04:39:02;;;;;;;16.43;11.40;;;;;;;;;;4997540;28;20963;-58
2023/10/23 04:41:27;;;;;;;17.67;12.23;;;;;;;;;;4999457;28;20775;-57
2023/10/23 04:43:52;;;;;;;40.10;12.97;;;;;;;;;;5004192;28;20408;-57
2023/10/23 04:46:17;;;;;;;19.17;12.40;;;;;;;;;;5004335;28;20416;-58
2023/10/23 04:48:43;;;;;;;20.40;12.67;;;;;;;;;;5007668;28;20502;-57
2023/10/23 04:51:08;;;;;;;18.60;12.13;;;;;;;;;;5004854;28;20417;-58
2023/10/23 04:53:33;;;;;;;28.13;12.90;;;;;;;;;;5005317;28;20401;-58
2023/10/23 04:55:58;;;;;;;20.43;12.50;;;;;;;;;;5021330;28;20410;-57
2023/10/23 04:58:24;;;;;;;28.00;13.10;;;;;;;;;;5018325;28;20426;-58
2023/10/23 05:00:49;;;;;;;21.27;12.90;;;;;;;;;;5028616;28;20494;-57
2023/10/23 05:03:15;;;;;;;17.80;11.83;;;;;;;;;;5021866;28;20800;-58
2023/10/23 05:05:47;;;;;;;32.25;14.30;;;;;;;;;;5046281;28;20402;-58
2023/10/23 05:08:13;;;;;;;28.02;12.73;;;;;;;;;;5040050;28;20416;-58
2023/10/23 05:10:38;;;;;;;36.93;13.83;;;;;;;;;;5041039;28;20413;-58
2023/10/23 05:13:04;;;;;;;24.63;12.67;;;;;;;;;;5043673;28;20418;-58
2023/10/23 05:15:30;;;;;;;15.88;11.20;;;;;;;;;;5039730;28;20480;-58
2023/10/23 05:17:55;;;;;;;15.60;11.40;;;;;;;;;;5043775;28;20546;-57
2023/10/23 05:20:21;;;;;;;15.17;11.50;;;;;;;;;;5039811;28;20398;-57
2023/10/23 05:22:46;;;;;;;17.77;11.70;;;;;;;;;;5040582;28;20449;-58
2023/10/23 05:25:12;;;;;;;16.33;11.60;;;;;;;;;;5041778;28;20946;-58
2023/10/23 05:27:37;;;;;;;25.50;13.50;;;;;;;;;;5043319;28;20871;-57
2023/10/23 05:30:03;;;;;;;17.37;12.13;;;;;;;;;;5042277;28;20469;-58
2023/10/23 05:32:29;;;;;;;18.23;11.03;;;;;;;;;;5042411;28;20471;-58
2023/10/23 05:34:54;;;;;;;22.85;12.23;;;;;;;;;;5039886;28;21177;-58
2023/10/23 05:37:20;;;;;;;20.00;13.00;;;;;;;;;;5042425;28;20412;-57
2023/10/23 05:39:45;;;;;;;19.90;12.67;;;;;;;;;;5042678;28;20412;-58
2023/10/23 05:42:10;;;;;;;20.00;12.97;;;;;;;;;;5043632;28;20439;-58
2023/10/23 05:44:35;;;;;;;23.47;13.57;;;;;;;;;;5038115;28;20455;-58
2023/10/23 05:47:01;;;;;;;15.37;11.67;;;;;;;;;;5042642;28;20496;-57
2023/10/23 05:49:27;;;;;;;28.65;15.18;;;;;;;;;;5041650;28;20393;-57
2023/10/23 05:51:52;;;;;;;20.13;12.53;;;;;;;;;;5040444;28;20756;-57
2023/10/23 05:54:18;;;;;;;18.83;11.50;;;;;;;;;;5043144;28;20397;-57
2023/10/23 05:56:43;;;;;;;15.70;11.35;;;;;;;;;;5043035;28;20512;-58
2023/10/23 05:59:09;;;;;;;17.20;11.70;;;;;;;;;;5042053;28;20456;-57
2023/10/23 06:01:34;;;;;;;14.48;10.88;;;;;;;;;;5026704;28;20420;-57
2023/10/23 06:03:59;;;;;;;17.70;12.40;;;;;;;;;;5024025;28;20469;-57
2023/10/23 06:06:25;;;;;;;17.57;12.17;;;;;;;;;;5020693;28;20401;-57
2023/10/23 06:08:50;;;;;;;17.33;12.17;;;;;;;;;;5020159;28;20475;-57
2023/10/23 06:11:15;;;;;;;19.53;13.37;;;;;;;;;;5022210;28;20411;-57
2023/10/23 06:13:41;;;;;;;22.33;13.80;;;;;;;;;;5017194;28;20405;-57
2023/10/23 06:16:07;;;;;;;22.50;14.47;;;;;;;;;;5020529;28;20498;-57
2023/10/23 06:18:33;;;;;;;24.52;15.18;;;;;;;;;;5029716;28;20410;-56
2023/10/23 06:21:01;;;;;;;22.27;13.20;;;;;;;;;;5027939;28;20414;-56
2023/10/23 06:23:27;;;;;;;29.48;15.38;;;;;;;;;;5025708;28;20406;-57
2023/10/23 06:25:54;;;;;;;21.43;13.73;;;;;;;;;;5029802;28;20403;-57
2023/10/23 06:28:19;;;;;;;38.63;17.38;;;;;;;;;;5024838;28;21199;-57
2023/10/23 06:30:44;;;;;;;20.70;13.07;;;;;;;;;;5025357;28;20403;-57
2023/10/23 06:33:09;;;;;;;180.83;17.73;;;;;;;;;;5023844;28;20419;-57
2023/10/23 06:35:35;;;;;;;31.43;11.90;;;;;;;;;;5024482;28;20483;-56
2023/10/23 06:38:00;;;;;;;27.50;12.13;;;;;;;;;;5025358;28;20411;-59
2023/10/23 06:40:25;;;;;;;16.23;11.00;;;;;;;;;;5025764;28;20402;-57
2023/10/23 06:42:50;;;;;;;19.45;11.65;;;;;;;;;;5025090;28;20489;-56
2023/10/23 06:45:16;;;;;;;100.67;12.43;;;;;;;;;;5026814;28;20413;-57
2023/10/23 06:47:41;;;;;;;30.30;9.90;;;;;;;;;;5025634;28;20415;-57
2023/10/23 06:50:07;;;;;;;11.10;9.00;;;;;;;;;;5023735;28;20414;-57
2023/10/23 06:52:32;;;;;;;17.33;9.93;;;;;;;;;;5026845;28;20403;-57
2023/10/23 06:54:57;;;;;;;77.07;11.70;;;;;;;;;;5023796;28;20774;-56
2023/10/23 06:57:23;;;;;;;38.17;10.73;;;;;;;;;;5021731;28;20392;-57
2023/10/23 06:59:48;;;;;;;45.50;10.87;;;;;;;;;;5026821;28;20407;-57
2023/10/23 07:02:14;;;;;;;32.65;10.73;;;;;;;;;;5047987;28;20449;-57
2023/10/23 07:04:39;;;;;;;17.37;8.73;;;;;;;;;;5044454;28;20532;-57
2023/10/23 07:07:04;;;;;;;14.10;8.67;;;;;;;;;;5046184;28;20412;-57
2023/10/23 07:09:30;;;;;;;14.77;8.47;;;;;;;;;;5047669;28;20478;-56
2023/10/23 07:11:56;;;;;;;16.15;9.40;;;;;;;;;;5047541;28;20409;-57
2023/10/23 07:14:22;;;;;;;15.82;8.98;;;;;;;;;;5045715;28;20814;-57
2023/10/23 07:16:47;;;;;;;32.43;9.90;;;;;;;;;;5047164;28;20413;-57
2023/10/23 07:19:12;;;;;;;14.47;8.87;;;;;;;;;;5048148;28;20409;-57
2023/10/23 07:21:38;;;;;;;36.80;8.57;;;;;;;;;;5045382;28;20389;-57
2023/10/23 07:24:03;;;;;;;28.60;7.53;;;;;;;;;;5047493;28;20417;-57
2023/10/23 07:26:28;;;;;;;14.70;7.13;;;;;;;;;;5048825;28;20397;-57
2023/10/23 07:28:54;;;;;;;11.77;6.97;;;;;;;;;;5045764;28;20560;-57
2023/10/23 07:31:19;;;;;;;10.53;7.17;;;;;;;;;;5047419;28;20477;-57
2023/10/23 07:33:45;;;;;;;10.63;6.20;;;;;;;;;;5048992;28;20409;-57
2023/10/23 07:36:10;;;;;;;12.57;6.40;;;;;;;;;;5046225;28;20996;-57
2023/10/23 07:38:42;;;;;;;15.27;5.83;;;;;;;;;;5047434;28;21756;-56
2023/10/23 07:41:08;;;;;;;58.92;8.35;;;;;;;;;;5047676;28;20412;-57
2023/10/23 07:43:33;;;;;;;11.03;6.60;;;;;;;;;;5047100;28;20401;-56
2023/10/23 07:46:03;;;;;;;33.00;7.03;;;;;;;;;;5046479;28;20878;-56
2023/10/23 07:48:28;;;;;;;51.25;8.40;;;;;;;;;;5028680;28;20432;-57
2023/10/23 07:50:53;;;;;;;32.07;7.80;;;;;;;;;;5047681;28;20953;-57
2023/10/23 07:53:18;;;;;;;31.53;8.03;;;;;;;;;;5045484;28;20454;-56
2023/10/23 07:55:44;;;;;;;37.17;7.97;;;;;;;;;;5047907;28;20397;-57
2023/10/23 07:58:09;;;;;;;52.10;9.35;;;;;;;;;;5047046;28;20401;-56
2023/10/23 08:00:35;;;;;;;35.40;7.93;;;;;;;;;;5038704;28;20957;-57
2023/10/23 08:03:00;;;;;;;45.87;8.57;;;;;;;;;;5028376;28;20407;-57
2023/10/23 08:05:25;;;;;;;92.27;11.20;;;;;;;;;;5027641;28;20392;-56
2023/10/23 08:07:51;;;;;;;59.05;9.48;;;;;;;;;;5024391;28;20488;-57
2023/10/23 08:10:16;;;;;;;40.07;8.50;;;;;;;;;;5027528;28;20506;-56
2023/10/23 08:12:41;;;;;;;55.40;8.97;;;;;;;;;;5027684;28;20541;-56
2023/10/23 08:15:07;;;;;;;38.60;8.87;;;;;;;;;;5024657;28;20442;-56
2023/10/23 08:17:33;;;;;;;25.40;7.43;;;;;;;;;;5027450;28;20754;-57
2023/10/23 08:19:58;;;;;;;57.33;9.45;;;;;;;;;;5027601;28;20933;-57
2023/10/23 08:22:23;;;;;;;86.53;10.90;;;;;;;;;;5025585;28;20423;-56
2023/10/23 08:24:49;;;;;;;85.87;12.00;;;;;;;;;;5026883;28;20413;-56
2023/10/23 08:27:14;;;;;;;114.13;13.03;;;;;;;;;;5026459;28;20415;-56
2023/10/23 08:29:39;;;;;;;24.57;7.57;;;;;;;;;;5025732;28;20814;-56
2023/10/23 08:32:05;;;;;;;10.60;7.00;;;;;;;;;;5026889;28;20406;-56
2023/10/23 08:34:30;;;;;;;71.35;11.35;;;;;;;;;;5027182;28;20403;-56
2023/10/23 08:36:55;;;;;;;53.13;10.97;;;;;;;;;;5026933;28;20419;-56
2023/10/23 08:39:21;;;;;;;51.63;11.10;;;;;;;;;;5025277;28;20383;-56
2023/10/23 08:41:48;;;;;;;66.20;11.93;;;;;;;;;;5026883;28;20482;-56
2023/10/23 08:44:13;;;;;;;22.05;10.45;;;;;;;;;;5026673;28;20407;-56
2023/10/23 08:46:39;;;;;;;62.33;11.13;;;;;;;;;;5025636;28;20488;-56
2023/10/23 08:49:04;;;;;;;44.08;9.57;;;;;;;;;;5025413;28;20530;-56
2023/10/23 08:51:31;;;;;;;47.63;12.10;;;;;;;;;;5027597;28;20746;-56
2023/10/23 08:54:00;;;;;;;37.00;10.90;;;;;;;;;;5024842;28;20482;-55
2023/10/23 08:56:26;;;;;;;18.23;9.77;;;;;;;;;;5026481;28;20430;-56
2023/10/23 08:58:52;;;;;;;17.70;10.70;;;;;;;;;;5027636;28;20403;-56
2023/10/23 09:01:18;;;;;;;16.35;10.63;;;;;;;;;;5035665;28;20611;-56
2023/10/23 09:03:43;;;;;;;18.67;9.67;;;;;;;;;;5046157;28;20815;-56
2023/10/23 09:06:09;;;;;;;16.70;10.40;;;;;;;;;;5046681;28;20409;-57
2023/10/23 09:08:36;;;;;;;17.45;10.80;;;;;;;;;;5043696;28;20983;-56
2023/10/23 09:11:03;;;;;;;16.35;10.30;;;;;;;;;;5041515;28;20500;-56
2023/10/23 09:13:36;;;;;;;18.15;10.02;;;;;;;;;;5046773;28;20500;-56
2023/10/23 09:16:03;;;;;;;21.20;11.57;;;;;;;;;;5045134;28;20896;-56
2023/10/23 09:18:29;;;;;;;19.05;11.10;;;;;;;;;;5044193;28;20397;-56
2023/10/23 09:20:54;;;;;;;20.67;12.53;;;;;;;;;;5042955;28;20427;-56
2023/10/23 09:23:20;;;;;;;19.73;12.30;;;;;;;;;;5041451;28;20405;-56
2023/10/23 09:25:47;;;;;;;18.00;10.53;;;;;;;;;;5043334;28;20484;-55
2023/10/23 09:28:13;;;;;;;17.55;11.32;;;;;;;;;;5046715;28;20417;-56
2023/10/23 09:30:38;;;;;;;18.02;10.15;;;;;;;;;;5046273;28;20451;-56
2023/10/23 09:33:04;;;;;;;14.23;8.83;;;;;;;;;;5044011;28;20718;-56
2023/10/23 09:35:29;;;;;;;15.03;8.67;;;;;;;;;;5043000;28;20400;-56
2023/10/23 09:37:55;;;;;;;12.00;8.17;;;;;;;;;;5045783;28;20401;-56
2023/10/23 09:40:21;;;;;;;11.35;7.35;;;;;;;;;;5043898;28;21738;-56
2023/10/23 09:42:46;;;;;;;13.80;7.80;;;;;;;;;;5030990;28;20408;-56
2023/10/23 09:45:12;;;;;;;13.60;8.73;;;;;;;;;;5045084;28;20410;-57
2023/10/23 09:47:37;;;;;;;14.00;7.90;;;;;;;;;;5045033;28;20745;-56
2023/10/23 09:50:03;;;;;;;14.67;7.30;;;;;;;;;;5045684;28;20397;-57
2023/10/23 09:52:31;;;;;;;10.55;7.25;;;;;;;;;;5030111;28;20396;-56
2023/10/23 09:54:59;;;;;;;10.15;6.57;;;;;;;;;;5048156;28;20991;-56
2023/10/23 09:57:25;;;;;;;11.70;6.00;;;;;;;;;;5048393;28;20487;-56
2023/10/23 09:59:52;;;;;;;12.75;8.38;;;;;;;;;;5032146;28;20404;-56
2023/10/23 10:02:17;;;;;;;16.60;9.40;;;;;;;;;;5038500;28;20508;-56
2023/10/23 10:04:43;;;;;;;29.37;14.80;;;;;;;;;;5042705;28;20492;-56
2023/10/23 10:07:09;;;;;;;20.70;10.67;;;;;;;;;;5048516;28;20432;-56
2023/10/23 10:09:34;;;;;;;20.48;10.55;;;;;;;;;;5050153;28;20404;-56
2023/10/23 10:11:59;;;;;;;21.40;10.30;;;;;;;;;;5041902;28;20792;-56
2023/10/23 10:14:25;;;;;;;68.43;29.00;;;;;;;;;;5048799;28;20806;-56
2023/10/23 10:16:50;;;;;;;29.23;14.88;;;;;;;;;;5049351;28;20911;-56
2023/10/23 10:19:16;;;;;;;14.70;7.90;;;;;;;;;;5047400;28;20847;-56
2023/10/23 10:21:47;;;;;;;12.77;9.03;;;;;;;;;;5043272;28;20829;-56
2023/10/23 10:24:12;;;;;;;13.73;8.38;;;;;;;;;;5045472;28;20406;-56
2023/10/23 10:26:37;;;;;;;12.37;7.40;;;;;;;;;;5033347;28;20401;-56
2023/10/23 10:29:03;;;;;;;13.10;7.83;;;;;;;;;;5049152;28;20471;-57
2023/10/23 10:31:28;;;;;;;14.20;8.52;;;;;;;;;;5049963;28;20409;-56
2023/10/23 10:33:54;;;;;;;13.17;7.80;;;;;;;;;;5047456;28;20815;-56
2023/10/23 10:36:19;;;;;;;12.33;8.77;;;;;;;;;;5048170;28;20463;-56
2023/10/23 10:38:46;;;;;;;15.68;9.10;;;;;;;;;;5031328;28;20393;-56
2023/10/23 10:41:12;;;;;;;16.60;10.20;;;;;;;;;;5043843;28;20414;-56
2023/10/23 10:43:38;;;;;;;15.10;10.03;;;;;;;;;;5046420;28;20398;-56
2023/10/23 10:46:20;;;;;;;15.77;9.70;;;;;;;;;;5045271;28;20455;-57
2023/10/23 10:48:46;;;;;;;14.35;9.75;;;;;;;;;;5048242;28;20451;-56
2023/10/23 10:51:17;;;;;;;14.38;9.63;;;;;;;;;;5046627;28;20408;-57
2023/10/23 10:53:43;;;;;;;18.95;11.20;;;;;;;;;;5049406;28;20413;-56
2023/10/23 10:56:08;;;;;;;16.73;12.17;;;;;;;;;;5048001;28;20405;-56
2023/10/23 10:58:34;;;;;;;18.83;13.13;;;;;;;;;;5046684;28;20421;-56
2023/10/23 11:00:59;;;;;;;19.85;14.10;;;;;;;;;;5055118;28;20423;-56
2023/10/23 11:03:26;;;;;;;22.07;13.90;;;;;;;;;;5053086;28;20401;-56
2023/10/23 11:05:51;;;;;;;20.20;12.97;;;;;;;;;;5043145;28;20470;-56
2023/10/23 11:08:17;;;;;;;19.35;12.93;;;;;;;;;;5055284;28;21049;-56
2023/10/23 11:10:42;;;;;;;18.10;11.47;;;;;;;;;;5064398;28;20406;-56
2023/10/23 11:13:12;;;;;;;18.50;10.30;;;;;;;;;;5061553;28;20499;-56
2023/10/23 11:15:37;;;;;;;18.00;10.30;;;;;;;;;;5062102;28;20392;-56
2023/10/23 11:18:04;;;;;;;16.87;8.33;;;;;;;;;;5062740;28;20426;-56
2023/10/23 11:20:31;;;;;;;17.80;9.05;;;;;;;;;;5064145;28;20388;-56
2023/10/23 11:22:56;;;;;;;15.38;8.57;;;;;;;;;;5060430;28;20830;-56
2023/10/23 11:25:21;;;;;;;16.80;9.60;;;;;;;;;;5063945;28;21448;-56
2023/10/23 11:27:49;;;;;;;17.67;9.23;;;;;;;;;;5064134;28;20407;-56
2023/10/23 11:30:16;;;;;;;16.02;8.35;;;;;;;;;;5058893;28;20410;-56
2023/10/23 11:32:43;;;;;;;17.40;7.93;;;;;;;;;;5047526;28;20417;-57
2023/10/23 11:35:09;;;;;;;14.05;7.07;;;;;;;;;;5064768;28;20391;-57
2023/10/23 11:37:40;;;;;;;15.90;6.83;;;;;;;;;;5059045;28;20414;-56
2023/10/23 11:40:06;;;;;;;12.90;5.57;;;;;;;;;;5063825;28;20758;-57
2023/10/23 11:42:42;;;;;;;12.18;5.45;;;;;;;;;;5064135;28;20402;-56
2023/10/23 11:45:09;;;;;;;11.30;5.13;;;;;;;;;;5060112;28;20415;-57
2023/10/23 11:47:34;;;;;;;12.00;5.00;;;;;;;;;;5062146;28;20407;-56
2023/10/23 11:50:00;;;;;;;11.52;4.93;;;;;;;;;;5064738;28;20425;-56
2023/10/23 11:52:25;;;;;;;14.13;5.60;;;;;;;;;;5061814;28;20384;-56
2023/10/23 11:54:50;;;;;;;13.73;5.60;;;;;;;;;;5043604;28;20399;-56
2023/10/23 11:57:16;;;;;;;12.30;4.93;;;;;;;;;;5064398;28;20413;-56
2023/10/23 11:59:41;;;;;;;11.60;4.53;;;;;;;;;;5062771;28;20391;-56
2023/10/23 12:02:06;;;;;;;17.10;4.77;;;;;;;;;;5029238;28;20889;-57
2023/10/23 12:04:35;;;;;;;12.50;4.30;;;;;;;;;;5028123;28;21084;-56
2023/10/23 12:07:04;;;;;;;16.45;5.68;;;;;;;;;;5025883;28;21476;-57
2023/10/23 12:09:29;;;;;;;16.30;5.25;;;;;;;;;;5025915;28;20410;-56
2023/10/23 12:11:55;;;;;;;13.40;5.47;;;;;;;;;;5030345;28;20403;-56
2023/10/23 12:14:20;;;;;;;9.87;4.70;;;;;;;;;;5027236;28;20406;-57
2023/10/23 12:16:46;;;;;;;12.77;4.85;;;;;;;;;;5028175;28;20494;-57
2023/10/23 12:19:11;;;;;;;10.50;4.63;;;;;;;;;;5025335;28;20504;-57
2023/10/23 12:21:37;;;;;;;11.90;5.07;;;;;;;;;;5027758;28;20403;-56
2023/10/23 12:24:02;;;;;;;9.30;4.10;;;;;;;;;;5027456;28;20414;-57
2023/10/23 12:26:28;;;;;;;14.23;4.65;;;;;;;;;;5025202;28;20437;-56
2023/10/23 12:28:53;;;;;;;14.83;5.10;;;;;;;;;;5027943;28;20752;-57
2023/10/23 12:31:18;;;;;;;14.17;4.77;;;;;;;;;;5027547;28;20403;-57
2023/10/23 12:33:44;;;;;;;15.37;4.83;;;;;;;;;;5024796;28;20422;-56
2023/10/23 12:36:10;;;;;;;15.10;5.13;;;;;;;;;;5026882;28;20898;-56
2023/10/23 12:38:35;;;;;;;15.30;5.47;;;;;;;;;;5027826;28;20735;-56
2023/10/23 12:41:00;;;;;;;12.57;5.83;;;;;;;;;;5024525;28;20406;-57
2023/10/23 12:43:26;;;;;;;17.50;7.33;;;;;;;;;;5027704;28;20403;-56
2023/10/23 12:45:51;;;;;;;16.40;7.57;;;;;;;;;;5027709;28;20399;-56
2023/10/23 12:48:16;;;;;;;16.27;8.38;;;;;;;;;;5024821;28;20418;-56
2023/10/23 12:50:42;;;;;;;19.23;9.53;;;;;;;;;;5026867;28;20399;-55
2023/10/23 12:53:08;;;;;;;20.50;9.33;;;;;;;;;;5026865;28;20411;-56
2023/10/23 12:55:33;;;;;;;19.83;8.77;;;;;;;;;;5025595;28;20399;-57
2023/10/23 12:58:00;;;;;;;17.23;7.10;;;;;;;;;;5026252;28;20859;-56
2023/10/23 13:00:26;;;;;;;16.58;6.70;;;;;;;;;;5030871;28;20393;-56
2023/10/23 13:02:51;;;;;;;13.50;6.17;;;;;;;;;;5045863;28;20912;-56
2023/10/23 13:05:16;;;;;;;16.77;7.40;;;;;;;;;;5044882;28;20444;-56
2023/10/23 13:07:42;;;;;;;14.20;6.10;;;;;;;;;;5046713;28;20792;-56
2023/10/23 13:10:07;;;;;;;14.70;6.55;;;;;;;;;;5046096;28;20429;-56
2023/10/23 13:12:34;;;;;;;19.13;7.00;;;;;;;;;;5045145;28;20763;-56
2023/10/23 13:14:59;;;;;;;15.90;6.63;;;;;;;;;;5046825;28;20397;-56
2023/10/23 13:17:25;;;;;;;16.17;6.70;;;;;;;;;;5045865;28;20412;-57
2023/10/23 13:19:50;;;;;;;14.00;6.37;;;;;;;;;;5044811;28;20405;-56
2023/10/23 13:22:15;;;;;;;14.93;6.50;;;;;;;;;;5044810;28;20413;-56
2023/10/23 13:24:41;;;;;;;13.07;6.70;;;;;;;;;;5047032;28;20405;-56
2023/10/23 13:27:06;;;;;;;16.20;6.78;;;;;;;;;;5048547;28;20410;-57
2023/10/23 13:29:32;;;;;;;14.30;6.63;;;;;;;;;;5050165;28;20488;-56
2023/10/23 13:31:58;;;;;;;13.50;6.23;;;;;;;;;;5050188;28;20908;-56
2023/10/23 13:34:23;;;;;;;14.73;6.32;;;;;;;;;;5027848;28;20528;-56
2023/10/23 13:36:49;;;;;;;13.87;6.60;;;;;;;;;;5029106;28;20396;-56
2023/10/23 13:39:14;;;;;;;16.23;6.77;;;;;;;;;;5025063;28;20493;-56
2023/10/23 13:41:39;;;;;;;13.27;6.47;;;;;;;;;;5032223;28;20413;-56
2023/10/23 13:44:05;;;;;;;13.87;6.70;;;;;;;;;;5032449;28;20453;-57
2023/10/23 13:46:30;;;;;;;15.70;6.70;;;;;;;;;;5032641;28;20516;-56
2023/10/23 13:48:55;;;;;;;17.50;7.10;;;;;;;;;;5032960;28;20437;-56
2023/10/23 13:51:21;;;;;;;15.73;6.97;;;;;;;;;;5031808;28;20392;-56
2023/10/23 13:53:46;;;;;;;15.87;7.40;;;;;;;;;;5031746;28;21360;-56
2023/10/23 13:56:11;;;;;;;16.50;7.50;;;;;;;;;;5028018;28;20407;-56
2023/10/23 13:58:37;;;;;;;15.43;7.93;;;;;;;;;;5026521;28;20507;-56
2023/10/23 14:01:03;;;;;;;17.50;7.43;;;;;;;;;;5015418;28;20508;-57
2023/10/23 14:03:29;;;;;;;15.70;7.78;;;;;;;;;;5009016;28;20424;-56
2023/10/23 14:05:54;;;;;;;16.50;7.80;;;;;;;;;;5012375;28;20919;-56
2023/10/23 14:08:19;;;;;;;12.53;6.80;;;;;;;;;;5016434;28;20409;-56
2023/10/23 14:10:44;;;;;;;14.57;6.80;;;;;;;;;;5012259;28;20907;-57
2023/10/23 14:13:10;;;;;;;12.77;6.50;;;;;;;;;;5013553;28;20401;-56
2023/10/23 14:15:35;;;;;;;15.32;7.05;;;;;;;;;;5011115;28;20497;-56
2023/10/23 14:18:00;;;;;;;13.83;6.60;;;;;;;;;;5010945;28;21085;-56